Time,TemperatureF,DewpointF,PressureIn,WindDirection,WindDirectionDegrees,WindSpeedMPH,WindSpeedGustMPH,Humidity,HourlyPrecipIn,Conditions,Clouds,dailyrainin,SolarRadiationWatts/m^2,SoftwareType,DateUTC
2013-02-11 00:03:00,40.6,34.3,29.92,SE,138,0.0,0.0,78,0.00,,,0.00,0,Wunderground v.1.15,2013-02-11 08:03:00,
2013-02-11 00:13:00,40.6,34.3,29.92,SE,138,0.0,0.0,78,0.00,,,0.00,0,Wunderground v.1.15,2013-02-11 08:13:00,
2013-02-11 00:22:00,40.6,34.3,29.92,SE,138,0.0,0.0,78,0.00,,,0.00,0,Wunderground v.1.15,2013-02-11 08:22:00,
2013-02-11 00:33:00,40.6,34.3,29.91,SE,138,0.0,0.0,78,0.00,,,0.00,0,Wunderground v.1.15,2013-02-11 08:33:00,
2013-02-11 00:42:00,40.5,34.5,29.91,SE,138,0.0,0.0,79,0.00,,,0.00,0,Wunderground v.1.15,2013-02-11 08:42:00,
2013-02-11 00:52:00,40.3,34.3,29.91,SE,138,0.0,0.0,79,0.00,,,0.00,0,Wunderground v.1.15,2013-02-11 08:52:00,
2013-02-11 01:02:00,40.2,34.2,29.91,SE,138,0.0,0.0,79,0.00,,,0.00,0,Wunderground v.1.15,2013-02-11 09:02:00,
2013-02-11 01:12:00,40.2,34.2,29.91,SE,138,0.0,0.0,79,0.00,,,0.00,0,Wunderground v.1.15,2013-02-11 09:12:00,
2013-02-11 01:22:00,40.1,34.1,29.92,SE,138,0.0,0.0,79,0.00,,,0.00,0,Wunderground v.1.15,2013-02-11 09:22:00,
2013-02-11 01:33:00,40.1,34.1,29.92,SE,138,0.0,0.0,79,0.00,,,0.00,0,Wunderground v.1.15,2013-02-11 09:33:00,
2013-02-11 01:43:00,39.8,33.8,29.92,SE,138,0.0,0.0,79,0.00,,,0.00,0,Wunderground v.1.15,2013-02-11 09:43:00,
2013-02-11 01:52:00,39.6,33.9,29.92,SE,138,0.0,0.0,80,0.00,,,0.00,0,Wunderground v.1.15,2013-02-11 09:52:00,
2013-02-11 02:07:00,39.5,33.5,29.93,SE,138,0.0,0.0,79,0.00,,,0.00,0,Wunderground v.1.15,2013-02-11 10:07:00,
2013-02-11 02:12:00,39.5,33.5,29.93,SE,138,0.0,0.0,79,0.00,,,0.00,0,Wunderground v.1.15,2013-02-11 10:12:00,
2013-02-11 02:22:00,39.5,33.5,29.93,SE,138,0.0,0.0,79,0.00,,,0.00,0,Wunderground v.1.15,2013-02-11 10:22:00,
2013-02-11 02:32:00,39.5,32.6,29.92,SE,138,0.0,0.0,76,0.00,,,0.00,0,Wunderground v.1.15,2013-02-11 10:32:00,
2013-02-11 02:43:00,39.6,32.7,29.92,SE,138,0.0,0.0,76,0.00,,,0.00,0,Wunderground v.1.15,2013-02-11 10:43:00,
2013-02-11 02:53:00,39.9,32.6,29.93,SE,138,0.0,0.0,75,0.00,,,0.00,0,Wunderground v.1.15,2013-02-11 10:53:00,
2013-02-11 03:02:00,40.1,32.8,29.92,SE,138,0.0,0.0,75,0.00,,,0.00,0,Wunderground v.1.15,2013-02-11 11:02:00,
2013-02-11 03:12:00,40.3,31.6,29.92,SE,138,0.0,0.0,71,0.00,,,0.00,0,Wunderground v.1.15,2013-02-11 11:12:00,
2013-02-11 03:23:00,40.6,31.2,29.92,SE,138,0.0,0.0,69,0.00,,,0.00,0,Wunderground v.1.15,2013-02-11 11:23:00,
2013-02-11 03:33:00,41.1,32.1,29.93,SE,138,0.0,0.0,70,0.00,,,0.00,0,Wunderground v.1.15,2013-02-11 11:33:00,
2013-02-11 03:42:00,41.5,31.7,29.93,SE,138,0.0,0.0,68,0.00,,,0.00,0,Wunderground v.1.15,2013-02-11 11:42:00,
2013-02-11 03:53:00,41.8,32.7,29.92,SE,138,0.0,0.0,70,0.00,,,0.00,0,Wunderground v.1.15,2013-02-11 11:53:00,
2013-02-11 04:03:00,41.9,32.5,29.93,SE,138,0.0,0.0,69,0.00,,,0.00,0,Wunderground v.1.15,2013-02-11 12:03:00,
2013-02-11 04:12:00,41.9,31.4,29.93,SE,138,0.0,0.0,66,0.00,,,0.00,0,Wunderground v.1.15,2013-02-11 12:12:00,
2013-02-11 04:22:00,42.1,31.6,29.93,SE,138,0.0,0.0,66,0.00,,,0.00,0,Wunderground v.1.15,2013-02-11 12:22:00,
2013-02-11 04:32:00,42.1,31.6,29.93,SE,138,0.0,0.0,66,0.00,,,0.00,0,Wunderground v.1.15,2013-02-11 12:32:00,
2013-02-11 04:42:00,41.9,32.1,29.93,SE,138,0.0,0.0,68,0.00,,,0.00,0,Wunderground v.1.15,2013-02-11 12:42:00,
2013-02-11 04:52:00,41.8,32.4,29.93,SE,138,0.0,0.0,69,0.00,,,0.00,0,Wunderground v.1.15,2013-02-11 12:52:00,
2013-02-11 05:02:00,41.5,32.1,29.94,SE,138,0.0,0.0,69,0.00,,,0.00,0,Wunderground v.1.15,2013-02-11 13:02:00,
2013-02-11 05:13:00,41.2,32.9,29.94,SE,138,0.0,0.0,72,0.00,,,0.00,0,Wunderground v.1.15,2013-02-11 13:13:00,
2013-02-11 05:22:00,40.9,32.9,29.94,SE,138,0.0,0.0,73,0.00,,,0.00,0,Wunderground v.1.15,2013-02-11 13:22:00,
2013-02-11 05:32:00,40.6,31.6,29.94,SE,138,0.0,0.0,70,0.00,,,0.00,0,Wunderground v.1.15,2013-02-11 13:32:00,
2013-02-11 05:42:00,40.6,31.6,29.94,SE,138,0.0,0.0,70,0.00,,,0.00,0,Wunderground v.1.15,2013-02-11 13:42:00,
2013-02-11 05:52:00,40.6,30.9,29.95,SE,138,0.0,0.0,68,0.00,,,0.00,0,Wunderground v.1.15,2013-02-11 13:52:00,
2013-02-11 06:03:00,40.6,30.9,29.96,SE,138,0.0,0.0,68,0.00,,,0.00,0,Wunderground v.1.15,2013-02-11 14:03:00,
2013-02-11 06:12:00,40.6,30.1,29.96,SE,138,0.0,0.0,66,0.00,,,0.00,0,Wunderground v.1.15,2013-02-11 14:12:00,
2013-02-11 06:22:00,40.6,30.5,29.96,SE,138,0.0,0.0,67,0.00,,,0.00,0,Wunderground v.1.15,2013-02-11 14:22:00,
2013-02-11 06:32:00,40.6,31.9,29.97,SE,138,0.0,0.0,71,0.00,,,0.00,0,Wunderground v.1.15,2013-02-11 14:32:00,
2013-02-11 06:42:00,40.5,31.8,29.97,SE,138,0.0,0.0,71,0.00,,,0.00,0,Wunderground v.1.15,2013-02-11 14:42:00,
2013-02-11 06:52:00,40.2,30.1,29.98,SE,138,0.0,0.0,67,0.00,,,0.00,0,Wunderground v.1.15,2013-02-11 14:52:00,
2013-02-11 07:02:00,40.2,30.1,29.99,SE,138,0.0,0.0,67,0.00,,,0.00,0,Wunderground v.1.15,2013-02-11 15:02:00,
2013-02-11 07:13:00,40.2,29.7,29.99,SE,138,0.0,0.0,66,0.00,,,0.00,0,Wunderground v.1.15,2013-02-11 15:13:00,
2013-02-11 07:22:00,40.2,30.5,30.00,SE,138,0.0,0.0,68,0.00,,,0.00,0,Wunderground v.1.15,2013-02-11 15:22:00,
2013-02-11 07:32:00,40.1,31.1,30.00,SE,138,0.0,0.0,70,0.00,,,0.00,0,Wunderground v.1.15,2013-02-11 15:32:00,
2013-02-11 07:43:00,39.9,30.2,30.00,SE,138,0.0,0.0,68,0.00,,,0.00,11,Wunderground v.1.15,2013-02-11 15:43:00,
2013-02-11 07:52:00,40.1,29.6,30.00,SE,138,0.0,0.0,66,0.00,,,0.00,23,Wunderground v.1.15,2013-02-11 15:52:00,
2013-02-11 08:02:00,40.8,31.1,30.01,South,175,0.0,0.0,68,0.00,,,0.00,48,Wunderground v.1.15,2013-02-11 16:02:00,
2013-02-11 08:12:00,41.2,30.7,30.01,SSW,199,0.0,0.0,66,0.00,,,0.00,30,Wunderground v.1.15,2013-02-11 16:12:00,
2013-02-11 08:23:00,41.9,30.2,30.01,SSW,199,0.0,0.0,63,0.00,,,0.00,137,Wunderground v.1.15,2013-02-11 16:23:00,
2013-02-11 08:32:00,42.9,29.5,30.01,SSW,199,0.0,0.0,59,0.00,,,0.00,194,Wunderground v.1.15,2013-02-11 16:32:00,
2013-02-11 08:42:00,43.9,30.1,30.01,SSW,199,0.0,0.0,58,0.00,,,0.00,55,Wunderground v.1.15,2013-02-11 16:42:00,
2013-02-11 08:52:00,44.8,30.5,30.01,SSW,199,0.0,0.0,57,0.00,,,0.00,56,Wunderground v.1.15,2013-02-11 16:52:00,
2013-02-11 09:03:00,45.7,32.6,30.01,SSW,199,0.0,0.0,60,0.00,,,0.00,88,Wunderground v.1.15,2013-02-11 17:03:00,
2013-02-11 09:12:00,46.7,30.9,30.01,SSW,199,0.0,0.0,54,0.00,,,0.00,44,Wunderground v.1.15,2013-02-11 17:12:00,
2013-02-11 09:22:00,47.6,31.8,30.01,SSW,192,0.0,0.0,54,0.00,,,0.00,40,Wunderground v.1.15,2013-02-11 17:22:00,
2013-02-11 09:33:00,48.5,31.7,30.02,SSW,192,0.0,0.0,52,0.00,,,0.00,42,Wunderground v.1.15,2013-02-11 17:33:00,
2013-02-11 09:43:00,49.1,30.2,30.02,South,188,0.0,0.0,48,0.00,,,0.00,44,Wunderground v.1.15,2013-02-11 17:43:00,
2013-02-11 09:52:00,49.9,31.0,30.02,SSW,198,0.0,0.0,48,0.00,,,0.00,46,Wunderground v.1.15,2013-02-11 17:52:00,
2013-02-11 10:02:00,50.8,29.6,30.02,SSW,198,0.0,0.0,44,0.00,,,0.00,55,Wunderground v.1.15,2013-02-11 18:02:00,
2013-02-11 10:12:00,51.9,28.9,30.02,SSW,195,0.0,0.0,41,0.00,,,0.00,49,Wunderground v.1.15,2013-02-11 18:12:00,
2013-02-11 10:22:00,52.8,30.9,30.03,SSW,195,0.0,0.0,43,0.00,,,0.00,370,Wunderground v.1.15,2013-02-11 18:22:00,
2013-02-11 10:32:00,53.5,28.5,30.03,SSE,158,0.0,0.0,38,0.00,,,0.00,83,Wunderground v.1.15,2013-02-11 18:32:00,
2013-02-11 10:42:00,54.2,28.5,30.03,SE,145,0.0,0.0,37,0.00,,,0.00,90,Wunderground v.1.15,2013-02-11 18:42:00,
2013-02-11 10:52:00,54.7,26.1,30.03,SSW,192,0.0,0.0,33,0.00,,,0.00,176,Wunderground v.1.15,2013-02-11 18:52:00,
2013-02-11 11:03:00,55.4,28.9,30.03,SSW,208,0.0,0.0,36,0.00,,,0.00,62,Wunderground v.1.15,2013-02-11 19:03:00,
2013-02-11 11:13:00,56.2,25.9,30.03,SE,141,0.0,2.0,31,0.00,,,0.00,211,Wunderground v.1.15,2013-02-11 19:13:00,
2013-02-11 11:23:00,56.7,26.4,30.03,SE,144,1.0,1.0,31,0.00,,,0.00,614,Wunderground v.1.15,2013-02-11 19:23:00,
2013-02-11 11:32:00,58.4,32.2,30.03,SSE,150,0.0,0.0,37,0.00,,,0.00,609,Wunderground v.1.15,2013-02-11 19:32:00,
2013-02-11 11:42:00,58.7,24.8,30.03,SSE,150,0.0,0.0,27,0.00,,,0.00,164,Wunderground v.1.15,2013-02-11 19:42:00,
2013-02-11 11:47:00,58.4,27.1,30.02,SE,140,0.0,0.0,30,0.00,,,0.00,104,Wunderground v.1.15,2013-02-11 19:47:00,
2013-02-11 11:52:00,58.1,25.1,30.02,SE,130,0.0,2.0,28,0.00,,,0.00,111,Wunderground v.1.15,2013-02-11 19:52:00,
2013-02-11 12:03:00,57.6,23.8,30.02,SSE,150,1.0,1.0,27,0.00,,,0.00,58,Wunderground v.1.15,2013-02-11 20:03:00,
2013-02-11 12:13:00,57.6,23.8,30.02,South,171,1.0,1.0,27,0.00,,,0.00,62,Wunderground v.1.15,2013-02-11 20:13:00,
2013-02-11 12:23:00,57.6,22.0,30.02,SSE,164,1.0,1.0,25,0.00,,,0.00,63,Wunderground v.1.15,2013-02-11 20:23:00,
2013-02-11 12:32:00,57.8,22.2,30.01,SSE,154,1.0,1.0,25,0.00,,,0.00,63,Wunderground v.1.15,2013-02-11 20:32:00,
2013-02-11 12:42:00,58.1,24.3,30.01,SE,137,0.0,0.0,27,0.00,,,0.00,56,Wunderground v.1.15,2013-02-11 20:42:00,
2013-02-11 12:52:00,58.4,22.7,30.01,SE,136,0.0,0.0,25,0.00,,,0.00,55,Wunderground v.1.15,2013-02-11 20:52:00,
2013-02-11 13:02:00,58.6,22.8,30.01,South,185,0.0,1.0,25,0.00,,,0.00,55,Wunderground v.1.15,2013-02-11 21:02:00,
2013-02-11 13:13:00,57.8,24.0,30.01,SSE,151,3.0,3.0,27,0.00,,,0.00,77,Wunderground v.1.15,2013-02-11 21:13:00,
2013-02-11 13:22:00,58.1,22.4,30.00,SE,133,2.0,2.0,25,0.00,,,0.00,55,Wunderground v.1.15,2013-02-11 21:22:00,
2013-02-11 13:32:00,58.4,21.7,30.01,SSE,151,0.0,0.0,24,0.00,,,0.00,53,Wunderground v.1.15,2013-02-11 21:32:00,
2013-02-11 13:43:00,58.3,22.6,30.01,ESE,113,1.0,5.0,25,0.00,,,0.00,51,Wunderground v.1.15,2013-02-11 21:43:00,
2013-02-11 20:02:00,46.2,33.9,30.08,SSE,165,0.0,0.0,62,0.00,,,0.00,0,Wunderground v.1.15,2013-02-12 04:02:00,
2013-02-11 20:13:00,46.0,34.5,30.08,SSE,165,0.0,0.0,64,0.00,,,0.00,0,Wunderground v.1.15,2013-02-12 04:13:00,
2013-02-11 20:22:00,45.8,34.3,30.08,SSE,165,0.0,0.0,64,0.00,,,0.00,0,Wunderground v.1.15,2013-02-12 04:22:00,
2013-02-11 20:32:00,45.7,34.6,30.08,SSE,165,0.0,0.0,65,0.00,,,0.00,0,Wunderground v.1.15,2013-02-12 04:32:00,
2013-02-11 20:42:00,45.4,34.3,30.08,SSE,165,0.0,0.0,65,0.00,,,0.00,0,Wunderground v.1.15,2013-02-12 04:42:00,
2013-02-11 20:53:00,45.1,34.4,30.08,SSE,165,0.0,0.0,66,0.00,,,0.00,0,Wunderground v.1.15,2013-02-12 04:53:00,
2013-02-11 21:02:00,44.9,34.2,30.08,SSE,165,0.0,0.0,66,0.00,,,0.00,0,Wunderground v.1.15,2013-02-12 05:02:00,
2013-02-11 21:07:00,44.8,34.1,30.08,SSE,165,0.0,0.0,66,0.00,,,0.00,0,Wunderground v.1.15,2013-02-12 05:07:00,
2013-02-11 21:12:00,44.6,33.6,30.08,SSE,165,0.0,0.0,65,0.00,,,0.00,0,Wunderground v.1.15,2013-02-12 05:12:00,
2013-02-11 21:17:00,44.5,33.5,30.08,SSE,165,0.0,0.0,65,0.00,,,0.00,0,Wunderground v.1.15,2013-02-12 05:17:00,
2013-02-11 21:23:00,44.3,33.3,30.08,SSE,165,0.0,0.0,65,0.00,,,0.00,0,Wunderground v.1.15,2013-02-12 05:23:00,
2013-02-11 21:32:00,44.1,33.5,30.08,SSE,165,0.0,0.0,66,0.00,,,0.00,0,Wunderground v.1.15,2013-02-12 05:32:00,
2013-02-11 21:42:00,43.9,34.0,30.08,SSE,165,0.0,0.0,68,0.00,,,0.00,0,Wunderground v.1.15,2013-02-12 05:42:00,
2013-02-11 21:52:00,43.8,33.9,30.08,SSE,165,0.0,0.0,68,0.00,,,0.00,0,Wunderground v.1.15,2013-02-12 05:52:00,
2013-02-11 22:03:00,43.5,33.6,30.08,SSE,165,0.0,0.0,68,0.00,,,0.00,0,Wunderground v.1.15,2013-02-12 06:03:00,
2013-02-11 22:12:00,43.3,33.4,30.08,SSE,165,0.0,0.0,68,0.00,,,0.00,0,Wunderground v.1.15,2013-02-12 06:12:00,
2013-02-11 22:22:00,43.1,33.6,30.08,SSE,165,0.0,0.0,69,0.00,,,0.00,0,Wunderground v.1.15,2013-02-12 06:22:00,
2013-02-11 22:32:00,42.6,33.9,30.08,SSE,165,0.0,0.0,71,0.00,,,0.00,0,Wunderground v.1.15,2013-02-12 06:32:00,
2013-02-11 22:43:00,42.1,33.7,30.08,SSE,165,0.0,0.0,72,0.00,,,0.00,0,Wunderground v.1.15,2013-02-12 06:43:00,
2013-02-11 22:52:00,41.8,33.4,30.09,SSE,165,0.0,0.0,72,0.00,,,0.00,0,Wunderground v.1.15,2013-02-12 06:52:00,
2013-02-11 23:03:00,41.3,33.0,30.09,SSE,165,0.0,0.0,72,0.00,,,0.00,0,Wunderground v.1.15,2013-02-12 07:03:00,
2013-02-11 23:13:00,41.1,32.8,30.09,SSE,165,0.0,0.0,72,0.00,,,0.00,0,Wunderground v.1.15,2013-02-12 07:13:00,
2013-02-11 23:22:00,40.6,32.3,30.09,SSE,165,0.0,0.0,72,0.00,,,0.00,0,Wunderground v.1.15,2013-02-12 07:22:00,
2013-02-11 23:32:00,40.5,32.2,30.09,SSE,165,0.0,0.0,72,0.00,,,0.00,0,Wunderground v.1.15,2013-02-12 07:32:00,
2013-02-11 23:42:00,39.9,32.6,30.09,SSE,165,0.0,0.0,75,0.00,,,0.00,0,Wunderground v.1.15,2013-02-12 07:42:00,
2013-02-11 23:52:00,39.6,32.0,30.09,SSE,165,0.0,0.0,74,0.00,,,0.00,0,Wunderground v.1.15,2013-02-12 07:52:00,